sensor_id;sensor_type;location;lat;lon;timestamp;P1;durP1;ratioP1;P2;durP2;ratioP2
12869;SDS011;6503;48.572;13.460;2023-03-01T00:01:48;26.33;;;14.25;;
12869;SDS011;6503;48.572;13.460;2023-03-01T00:04:15;26.00;;;13.63;;
12869;SDS011;6503;48.572;13.460;2023-03-01T00:06:45;24.75;;;14.48;;
12869;SDS011;6503;48.572;13.460;2023-03-01T00:09:12;20.83;;;14.10;;
12869;SDS011;6503;48.572;13.460;2023-03-01T00:11:40;22.73;;;14.40;;
12869;SDS011;6503;48.572;13.460;2023-03-01T00:14:07;22.27;;;14.18;;
12869;SDS011;6503;48.572;13.460;2023-03-01T00:16:36;26.08;;;13.68;;
12869;SDS011;6503;48.572;13.460;2023-03-01T00:21:33;20.88;;;13.50;;
12869;SDS011;6503;48.572;13.460;2023-03-01T00:24:03;22.70;;;12.90;;
12869;SDS011;6503;48.572;13.460;2023-03-01T00:26:31;29.27;;;14.50;;
12869;SDS011;6503;48.572;13.460;2023-03-01T00:28:58;21.80;;;13.32;;
12869;SDS011;6503;48.572;13.460;2023-03-01T00:31:27;25.08;;;13.63;;
12869;SDS011;6503;48.572;13.460;2023-03-01T00:33:57;20.63;;;13.73;;
12869;SDS011;6503;48.572;13.460;2023-03-01T00:36:25;21.30;;;12.45;;
12869;SDS011;6503;48.572;13.460;2023-03-01T00:38:54;23.27;;;14.15;;
12869;SDS011;6503;48.572;13.460;2023-03-01T00:41:24;20.65;;;12.85;;
12869;SDS011;6503;48.572;13.460;2023-03-01T00:43:52;23.88;;;13.48;;
12869;SDS011;6503;48.572;13.460;2023-03-01T00:46:20;23.65;;;12.57;;
12869;SDS011;6503;48.572;13.460;2023-03-01T00:48:49;22.95;;;13.45;;
12869;SDS011;6503;48.572;13.460;2023-03-01T00:51:17;23.80;;;13.77;;
12869;SDS011;6503;48.572;13.460;2023-03-01T00:53:49;26.00;;;14.27;;
12869;SDS011;6503;48.572;13.460;2023-03-01T00:56:20;25.55;;;14.30;;
12869;SDS011;6503;48.572;13.460;2023-03-01T00:58:54;23.77;;;13.25;;
12869;SDS011;6503;48.572;13.460;2023-03-01T01:01:22;23.35;;;13.65;;
12869;SDS011;6503;48.572;13.460;2023-03-01T01:03:53;23.25;;;14.20;;
12869;SDS011;6503;48.572;13.460;2023-03-01T01:06:23;23.48;;;14.18;;
12869;SDS011;6503;48.572;13.460;2023-03-01T01:08:53;22.77;;;14.52;;
12869;SDS011;6503;48.572;13.460;2023-03-01T01:11:22;25.20;;;13.53;;
12869;SDS011;6503;48.572;13.460;2023-03-01T01:13:55;25.30;;;13.73;;
12869;SDS011;6503;48.572;13.460;2023-03-01T01:16:26;23.98;;;13.95;;
12869;SDS011;6503;48.572;13.460;2023-03-01T01:21:23;20.52;;;12.65;;
12869;SDS011;6503;48.572;13.460;2023-03-01T01:23:52;22.02;;;13.32;;
12869;SDS011;6503;48.572;13.460;2023-03-01T01:26:21;26.08;;;15.13;;
12869;SDS011;6503;48.572;13.460;2023-03-01T01:28:51;23.75;;;13.65;;
12869;SDS011;6503;48.572;13.460;2023-03-01T01:31:24;26.00;;;14.43;;
12869;SDS011;6503;48.572;13.460;2023-03-01T01:33:54;24.63;;;13.65;;
12869;SDS011;6503;48.572;13.460;2023-03-01T01:36:23;23.17;;;12.88;;
12869;SDS011;6503;48.572;13.460;2023-03-01T01:38:51;25.15;;;13.55;;
12869;SDS011;6503;48.572;13.460;2023-03-01T01:41:19;23.27;;;13.80;;
12869;SDS011;6503;48.572;13.460;2023-03-01T01:44:09;24.77;;;13.90;;
12869;SDS011;6503;48.572;13.460;2023-03-01T01:46:43;21.60;;;13.02;;
12869;SDS011;6503;48.572;13.460;2023-03-01T01:49:24;25.13;;;13.55;;
12869;SDS011;6503;48.572;13.460;2023-03-01T01:51:57;25.35;;;13.13;;
12869;SDS011;6503;48.572;13.460;2023-03-01T01:54:31;23.00;;;13.88;;
12869;SDS011;6503;48.572;13.460;2023-03-01T01:57:06;21.80;;;12.60;;
12869;SDS011;6503;48.572;13.460;2023-03-01T01:59:37;21.65;;;12.75;;
12869;SDS011;6503;48.572;13.460;2023-03-01T02:02:09;22.20;;;13.55;;
12869;SDS011;6503;48.572;13.460;2023-03-01T02:04:36;24.15;;;12.40;;
12869;SDS011;6503;48.572;13.460;2023-03-01T02:07:06;24.13;;;13.00;;
12869;SDS011;6503;48.572;13.460;2023-03-01T02:09:43;21.45;;;12.68;;
12869;SDS011;6503;48.572;13.460;2023-03-01T02:12:19;21.52;;;14.00;;
12869;SDS011;6503;48.572;13.460;2023-03-01T02:14:49;26.63;;;14.27;;
12869;SDS011;6503;48.572;13.460;2023-03-01T02:17:20;23.23;;;12.40;;
12869;SDS011;6503;48.572;13.460;2023-03-01T02:22:22;23.73;;;13.38;;
12869;SDS011;6503;48.572;13.460;2023-03-01T02:24:57;21.70;;;13.45;;
12869;SDS011;6503;48.572;13.460;2023-03-01T02:27:36;22.73;;;12.63;;
12869;SDS011;6503;48.572;13.460;2023-03-01T02:30:10;25.35;;;13.18;;
12869;SDS011;6503;48.572;13.460;2023-03-01T02:32:39;24.42;;;13.48;;
12869;SDS011;6503;48.572;13.460;2023-03-01T02:35:12;27.98;;;14.55;;
12869;SDS011;6503;48.572;13.460;2023-03-01T02:37:44;25.17;;;14.05;;
12869;SDS011;6503;48.572;13.460;2023-03-01T02:40:15;24.73;;;14.18;;
12869;SDS011;6503;48.572;13.460;2023-03-01T02:42:47;24.10;;;14.13;;
12869;SDS011;6503;48.572;13.460;2023-03-01T02:45:24;23.17;;;12.75;;
12869;SDS011;6503;48.572;13.460;2023-03-01T02:47:53;23.85;;;12.85;;
12869;SDS011;6503;48.572;13.460;2023-03-01T02:50:25;21.65;;;12.95;;
12869;SDS011;6503;48.572;13.460;2023-03-01T02:53:12;23.95;;;13.60;;
12869;SDS011;6503;48.572;13.460;2023-03-01T02:55:48;23.48;;;13.27;;
12869;SDS011;6503;48.572;13.460;2023-03-01T02:58:18;24.40;;;13.20;;
12869;SDS011;6503;48.572;13.460;2023-03-01T03:00:48;24.88;;;13.90;;
12869;SDS011;6503;48.572;13.460;2023-03-01T03:03:17;23.70;;;13.75;;
12869;SDS011;6503;48.572;13.460;2023-03-01T03:05:47;21.80;;;13.10;;
12869;SDS011;6503;48.572;13.460;2023-03-01T03:08:15;24.48;;;12.73;;
12869;SDS011;6503;48.572;13.460;2023-03-01T03:10:48;24.13;;;13.88;;
12869;SDS011;6503;48.572;13.460;2023-03-01T03:13:16;24.33;;;13.40;;
12869;SDS011;6503;48.572;13.460;2023-03-01T03:15:44;25.80;;;14.88;;
12869;SDS011;6503;48.572;13.460;2023-03-01T03:18:15;24.30;;;13.70;;
12869;SDS011;6503;48.572;13.460;2023-03-01T03:20:43;21.48;;;12.65;;
12869;SDS011;6503;48.572;13.460;2023-03-01T03:23:11;26.10;;;14.15;;
12869;SDS011;6503;48.572;13.460;2023-03-01T03:25:39;26.88;;;14.15;;
12869;SDS011;6503;48.572;13.460;2023-03-01T03:28:07;26.15;;;13.80;;
12869;SDS011;6503;48.572;13.460;2023-03-01T03:30:36;23.87;;;13.63;;
12869;SDS011;6503;48.572;13.460;2023-03-01T03:33:06;21.40;;;13.02;;
12869;SDS011;6503;48.572;13.460;2023-03-01T03:35:37;25.70;;;13.60;;
12869;SDS011;6503;48.572;13.460;2023-03-01T03:38:07;23.33;;;13.98;;
12869;SDS011;6503;48.572;13.460;2023-03-01T03:40:41;25.20;;;14.55;;
12869;SDS011;6503;48.572;13.460;2023-03-01T03:43:11;22.63;;;13.23;;
12869;SDS011;6503;48.572;13.460;2023-03-01T03:45:39;24.17;;;13.27;;
12869;SDS011;6503;48.572;13.460;2023-03-01T03:48:08;25.13;;;13.15;;
12869;SDS011;6503;48.572;13.460;2023-03-01T03:50:39;26.40;;;14.52;;
12869;SDS011;6503;48.572;13.460;2023-03-01T03:53:08;24.23;;;13.35;;
12869;SDS011;6503;48.572;13.460;2023-03-01T03:58:10;22.63;;;12.77;;
12869;SDS011;6503;48.572;13.460;2023-03-01T04:00:42;24.77;;;13.37;;
12869;SDS011;6503;48.572;13.460;2023-03-01T04:03:12;21.58;;;12.63;;
12869;SDS011;6503;48.572;13.460;2023-03-01T04:05:46;27.63;;;14.15;;
12869;SDS011;6503;48.572;13.460;2023-03-01T04:08:15;25.50;;;13.55;;
12869;SDS011;6503;48.572;13.460;2023-03-01T04:10:46;25.67;;;14.13;;
12869;SDS011;6503;48.572;13.460;2023-03-01T04:13:16;26.02;;;13.80;;
12869;SDS011;6503;48.572;13.460;2023-03-01T04:15:48;26.77;;;13.38;;
12869;SDS011;6503;48.572;13.460;2023-03-01T04:18:16;26.00;;;14.40;;
12869;SDS011;6503;48.572;13.460;2023-03-01T04:20:46;28.53;;;14.37;;
12869;SDS011;6503;48.572;13.460;2023-03-01T04:23:19;25.52;;;14.18;;
12869;SDS011;6503;48.572;13.460;2023-03-01T04:25:50;25.40;;;14.00;;
12869;SDS011;6503;48.572;13.460;2023-03-01T04:28:20;25.40;;;13.68;;
12869;SDS011;6503;48.572;13.460;2023-03-01T04:30:49;23.58;;;13.23;;
12869;SDS011;6503;48.572;13.460;2023-03-01T04:33:18;24.15;;;13.73;;
12869;SDS011;6503;48.572;13.460;2023-03-01T04:35:49;24.17;;;14.15;;
12869;SDS011;6503;48.572;13.460;2023-03-01T04:38:21;24.75;;;14.25;;
12869;SDS011;6503;48.572;13.460;2023-03-01T04:40:50;25.52;;;14.15;;
12869;SDS011;6503;48.572;13.460;2023-03-01T04:43:18;25.98;;;14.38;;
12869;SDS011;6503;48.572;13.460;2023-03-01T04:45:47;28.40;;;14.70;;
12869;SDS011;6503;48.572;13.460;2023-03-01T04:48:14;24.25;;;14.30;;
12869;SDS011;6503;48.572;13.460;2023-03-01T04:50:43;26.92;;;14.45;;
12869;SDS011;6503;48.572;13.460;2023-03-01T04:53:15;26.60;;;14.38;;
12869;SDS011;6503;48.572;13.460;2023-03-01T04:55:44;27.50;;;14.05;;
12869;SDS011;6503;48.572;13.460;2023-03-01T04:58:11;27.88;;;14.98;;
12869;SDS011;6503;48.572;13.460;2023-03-01T05:00:38;29.08;;;15.10;;
12869;SDS011;6503;48.572;13.460;2023-03-01T05:03:06;25.00;;;14.75;;
12869;SDS011;6503;48.572;13.460;2023-03-01T05:05:35;27.20;;;14.38;;
12869;SDS011;6503;48.572;13.460;2023-03-01T05:08:05;27.45;;;14.50;;
12869;SDS011;6503;48.572;13.460;2023-03-01T05:10:44;26.98;;;14.73;;
12869;SDS011;6503;48.572;13.460;2023-03-01T05:13:18;27.23;;;14.85;;
12869;SDS011;6503;48.572;13.460;2023-03-01T05:15:48;29.10;;;14.35;;
12869;SDS011;6503;48.572;13.460;2023-03-01T05:18:21;31.42;;;15.48;;
12869;SDS011;6503;48.572;13.460;2023-03-01T05:20:51;25.92;;;14.48;;
12869;SDS011;6503;48.572;13.460;2023-03-01T05:23:23;28.98;;;15.20;;
12869;SDS011;6503;48.572;13.460;2023-03-01T05:25:56;31.25;;;15.88;;
12869;SDS011;6503;48.572;13.460;2023-03-01T05:28:26;30.23;;;16.33;;
12869;SDS011;6503;48.572;13.460;2023-03-01T05:30:54;31.95;;;16.27;;
12869;SDS011;6503;48.572;13.460;2023-03-01T05:33:22;29.83;;;15.77;;
12869;SDS011;6503;48.572;13.460;2023-03-01T05:35:50;27.92;;;15.45;;
12869;SDS011;6503;48.572;13.460;2023-03-01T05:38:19;29.13;;;15.70;;
12869;SDS011;6503;48.572;13.460;2023-03-01T05:40:47;40.38;;;19.02;;
12869;SDS011;6503;48.572;13.460;2023-03-01T05:43:17;29.02;;;15.75;;
12869;SDS011;6503;48.572;13.460;2023-03-01T05:45:45;28.73;;;16.50;;
12869;SDS011;6503;48.572;13.460;2023-03-01T05:48:13;35.50;;;18.48;;
12869;SDS011;6503;48.572;13.460;2023-03-01T05:50:44;28.15;;;15.60;;
12869;SDS011;6503;48.572;13.460;2023-03-01T05:53:14;27.38;;;15.02;;
12869;SDS011;6503;48.572;13.460;2023-03-01T05:55:44;25.73;;;14.55;;
12869;SDS011;6503;48.572;13.460;2023-03-01T05:58:13;27.08;;;14.48;;
12869;SDS011;6503;48.572;13.460;2023-03-01T06:00:44;30.25;;;16.05;;
12869;SDS011;6503;48.572;13.460;2023-03-01T06:03:13;25.95;;;14.88;;
12869;SDS011;6503;48.572;13.460;2023-03-01T06:05:42;28.05;;;15.38;;
12869;SDS011;6503;48.572;13.460;2023-03-01T07:36:58;29.25;;;16.38;;
12869;SDS011;6503;48.572;13.460;2023-03-01T07:46:09;28.30;;;15.93;;
12869;SDS011;6503;48.572;13.460;2023-03-01T07:52:36;31.48;;;15.98;;
12869;SDS011;6503;48.572;13.460;2023-03-01T07:55:37;27.65;;;14.98;;
12869;SDS011;6503;48.572;13.460;2023-03-01T07:58:10;34.70;;;15.95;;
12869;SDS011;6503;48.572;13.460;2023-03-01T08:17:23;29.00;;;15.35;;
12869;SDS011;6503;48.572;13.460;2023-03-01T08:23:33;28.38;;;14.00;;
12869;SDS011;6503;48.572;13.460;2023-03-01T08:26:25;30.55;;;14.68;;
12869;SDS011;6503;48.572;13.460;2023-03-01T08:29:09;23.98;;;12.70;;
12869;SDS011;6503;48.572;13.460;2023-03-01T08:31:48;27.38;;;12.90;;
12869;SDS011;6503;48.572;13.460;2023-03-01T08:37:45;25.60;;;13.93;;
12869;SDS011;6503;48.572;13.460;2023-03-01T08:40:14;22.40;;;12.68;;
12869;SDS011;6503;48.572;13.460;2023-03-01T08:42:48;24.98;;;13.27;;
12869;SDS011;6503;48.572;13.460;2023-03-01T08:45:19;26.52;;;13.90;;
12869;SDS011;6503;48.572;13.460;2023-03-01T08:48:06;25.45;;;13.32;;
12869;SDS011;6503;48.572;13.460;2023-03-01T08:51:01;26.25;;;12.57;;
12869;SDS011;6503;48.572;13.460;2023-03-01T09:00:39;23.73;;;12.85;;
12869;SDS011;6503;48.572;13.460;2023-03-01T09:03:14;25.30;;;13.60;;
12869;SDS011;6503;48.572;13.460;2023-03-01T09:05:49;22.40;;;13.02;;
12869;SDS011;6503;48.572;13.460;2023-03-01T09:11:56;24.00;;;13.93;;
12869;SDS011;6503;48.572;13.460;2023-03-01T09:18:00;26.45;;;13.25;;
12869;SDS011;6503;48.572;13.460;2023-03-01T09:21:03;23.65;;;13.13;;
12869;SDS011;6503;48.572;13.460;2023-03-01T09:23:34;29.02;;;13.48;;
12869;SDS011;6503;48.572;13.460;2023-03-01T09:32:48;22.05;;;11.95;;
12869;SDS011;6503;48.572;13.460;2023-03-01T09:35:59;21.30;;;11.93;;
12869;SDS011;6503;48.572;13.460;2023-03-01T09:39:16;21.85;;;12.07;;
12869;SDS011;6503;48.572;13.460;2023-03-01T09:41:46;24.40;;;12.60;;
12869;SDS011;6503;48.572;13.460;2023-03-01T09:44:31;24.52;;;12.75;;
12869;SDS011;6503;48.572;13.460;2023-03-01T09:47:27;20.13;;;12.25;;
12869;SDS011;6503;48.572;13.460;2023-03-01T09:53:36;22.30;;;12.38;;
12869;SDS011;6503;48.572;13.460;2023-03-01T09:57:06;20.08;;;11.18;;
12869;SDS011;6503;48.572;13.460;2023-03-01T10:02:51;19.25;;;11.60;;
12869;SDS011;6503;48.572;13.460;2023-03-01T10:06:01;22.15;;;12.35;;
12869;SDS011;6503;48.572;13.460;2023-03-01T10:14:48;20.08;;;11.48;;
12869;SDS011;6503;48.572;13.460;2023-03-01T10:17:35;21.85;;;11.82;;
12869;SDS011;6503;48.572;13.460;2023-03-01T10:20:16;21.45;;;11.55;;
12869;SDS011;6503;48.572;13.460;2023-03-01T10:22:59;19.40;;;11.25;;
12869;SDS011;6503;48.572;13.460;2023-03-01T10:25:35;17.92;;;10.55;;
12869;SDS011;6503;48.572;13.460;2023-03-01T10:34:55;19.08;;;9.68;;
12869;SDS011;6503;48.572;13.460;2023-03-01T10:37:23;17.42;;;10.13;;
12869;SDS011;6503;48.572;13.460;2023-03-01T10:40:06;16.92;;;9.60;;
12869;SDS011;6503;48.572;13.460;2023-03-01T10:43:06;18.17;;;9.82;;
12869;SDS011;6503;48.572;13.460;2023-03-01T10:45:52;17.65;;;9.23;;
12869;SDS011;6503;48.572;13.460;2023-03-01T10:48:35;16.27;;;9.93;;
12869;SDS011;6503;48.572;13.460;2023-03-01T10:51:16;14.75;;;9.60;;
12869;SDS011;6503;48.572;13.460;2023-03-01T10:53:47;13.15;;;9.07;;
12869;SDS011;6503;48.572;13.460;2023-03-01T10:56:17;15.98;;;9.60;;
12869;SDS011;6503;48.572;13.460;2023-03-01T10:58:56;19.60;;;9.80;;
12869;SDS011;6503;48.572;13.460;2023-03-01T11:01:28;13.02;;;8.40;;
12869;SDS011;6503;48.572;13.460;2023-03-01T11:04:09;12.45;;;8.88;;
12869;SDS011;6503;48.572;13.460;2023-03-01T11:06:43;13.93;;;8.05;;
12869;SDS011;6503;48.572;13.460;2023-03-01T11:09:33;12.93;;;8.70;;
12869;SDS011;6503;48.572;13.460;2023-03-01T11:12:13;14.60;;;8.90;;
12869;SDS011;6503;48.572;13.460;2023-03-01T11:14:46;11.02;;;7.43;;
12869;SDS011;6503;48.572;13.460;2023-03-01T11:17:43;12.73;;;7.43;;
12869;SDS011;6503;48.572;13.460;2023-03-01T11:23:21;18.83;;;9.20;;
12869;SDS011;6503;48.572;13.460;2023-03-01T11:26:07;13.95;;;7.00;;
12869;SDS011;6503;48.572;13.460;2023-03-01T11:28:47;15.27;;;7.80;;
12869;SDS011;6503;48.572;13.460;2023-03-01T11:31:22;11.02;;;6.97;;
12869;SDS011;6503;48.572;13.460;2023-03-01T11:40:15;11.88;;;7.28;;
12869;SDS011;6503;48.572;13.460;2023-03-01T11:42:51;14.60;;;7.80;;
12869;SDS011;6503;48.572;13.460;2023-03-01T11:45:47;12.93;;;6.95;;
12869;SDS011;6503;48.572;13.460;2023-03-01T11:48:48;11.15;;;6.78;;
12869;SDS011;6503;48.572;13.460;2023-03-01T11:51:38;14.02;;;6.80;;
12869;SDS011;6503;48.572;13.460;2023-03-01T11:54:24;10.52;;;6.10;;
12869;SDS011;6503;48.572;13.460;2023-03-01T11:57:04;10.98;;;6.20;;
12869;SDS011;6503;48.572;13.460;2023-03-01T11:59:45;9.25;;;5.78;;
12869;SDS011;6503;48.572;13.460;2023-03-01T12:05:48;15.05;;;7.40;;
12869;SDS011;6503;48.572;13.460;2023-03-01T12:08:30;14.53;;;7.73;;
12869;SDS011;6503;48.572;13.460;2023-03-01T12:11:07;12.70;;;7.95;;
12869;SDS011;6503;48.572;13.460;2023-03-01T12:13:53;15.40;;;7.63;;
12869;SDS011;6503;48.572;13.460;2023-03-01T12:16:58;13.27;;;8.55;;
12869;SDS011;6503;48.572;13.460;2023-03-01T12:19:42;12.90;;;8.98;;
12869;SDS011;6503;48.572;13.460;2023-03-01T12:22:30;16.50;;;9.68;;
12869;SDS011;6503;48.572;13.460;2023-03-01T12:28:12;17.35;;;9.70;;
12869;SDS011;6503;48.572;13.460;2023-03-01T12:30:58;16.10;;;9.85;;
12869;SDS011;6503;48.572;13.460;2023-03-01T12:33:38;16.80;;;10.60;;
12869;SDS011;6503;48.572;13.460;2023-03-01T12:36:19;16.50;;;10.38;;
12869;SDS011;6503;48.572;13.460;2023-03-01T12:39:13;16.00;;;10.52;;
12869;SDS011;6503;48.572;13.460;2023-03-01T12:41:54;17.35;;;10.38;;
12869;SDS011;6503;48.572;13.460;2023-03-01T12:44:38;16.20;;;9.88;;
12869;SDS011;6503;48.572;13.460;2023-03-01T12:47:23;16.70;;;10.80;;
12869;SDS011;6503;48.572;13.460;2023-03-01T12:50:01;15.98;;;10.85;;
12869;SDS011;6503;48.572;13.460;2023-03-01T12:52:33;20.52;;;12.20;;
12869;SDS011;6503;48.572;13.460;2023-03-01T12:55:17;19.10;;;11.87;;
12869;SDS011;6503;48.572;13.460;2023-03-01T13:00:26;17.30;;;11.13;;
12869;SDS011;6503;48.572;13.460;2023-03-01T13:02:59;17.20;;;11.25;;
12869;SDS011;6503;48.572;13.460;2023-03-01T13:05:37;21.90;;;11.63;;
12869;SDS011;6503;48.572;13.460;2023-03-01T13:08:15;19.45;;;11.93;;
12869;SDS011;6503;48.572;13.460;2023-03-01T13:10:48;19.77;;;11.77;;
12869;SDS011;6503;48.572;13.460;2023-03-01T13:13:21;17.70;;;11.07;;
12869;SDS011;6503;48.572;13.460;2023-03-01T13:15:54;16.90;;;11.13;;
12869;SDS011;6503;48.572;13.460;2023-03-01T13:18:29;15.65;;;10.18;;
12869;SDS011;6503;48.572;13.460;2023-03-01T13:21:01;18.77;;;11.00;;
12869;SDS011;6503;48.572;13.460;2023-03-01T13:26:03;16.77;;;10.32;;
12869;SDS011;6503;48.572;13.460;2023-03-01T13:34:50;17.67;;;10.25;;
12869;SDS011;6503;48.572;13.460;2023-03-01T13:38:12;16.52;;;9.85;;
12869;SDS011;6503;48.572;13.460;2023-03-01T13:41:13;14.90;;;9.52;;
12869;SDS011;6503;48.572;13.460;2023-03-01T13:43:45;17.23;;;10.88;;
12869;SDS011;6503;48.572;13.460;2023-03-01T13:46:44;15.95;;;9.88;;
12869;SDS011;6503;48.572;13.460;2023-03-01T13:49:26;14.77;;;9.98;;
12869;SDS011;6503;48.572;13.460;2023-03-01T13:51:57;17.27;;;10.23;;
12869;SDS011;6503;48.572;13.460;2023-03-01T13:54:29;15.02;;;9.80;;
12869;SDS011;6503;48.572;13.460;2023-03-01T13:56:59;17.42;;;9.80;;
12869;SDS011;6503;48.572;13.460;2023-03-01T14:01:56;18.00;;;9.10;;
12869;SDS011;6503;48.572;13.460;2023-03-01T14:18:02;13.48;;;8.25;;
12869;SDS011;6503;48.572;13.460;2023-03-01T14:21:00;13.82;;;7.47;;
12869;SDS011;6503;48.572;13.460;2023-03-01T14:23:47;12.88;;;7.85;;
12869;SDS011;6503;48.572;13.460;2023-03-01T14:26:36;12.65;;;8.30;;
12869;SDS011;6503;48.572;13.460;2023-03-01T14:29:26;12.32;;;8.15;;
12869;SDS011;6503;48.572;13.460;2023-03-01T14:32:52;13.68;;;8.13;;
12869;SDS011;6503;48.572;13.460;2023-03-01T14:42:00;13.32;;;7.47;;
12869;SDS011;6503;48.572;13.460;2023-03-01T14:44:37;10.98;;;7.05;;
12869;SDS011;6503;48.572;13.460;2023-03-01T14:47:17;13.13;;;7.57;;
12869;SDS011;6503;48.572;13.460;2023-03-01T14:50:13;10.50;;;7.15;;
12869;SDS011;6503;48.572;13.460;2023-03-01T14:56:42;12.10;;;6.85;;
12869;SDS011;6503;48.572;13.460;2023-03-01T14:59:22;12.50;;;7.38;;
12869;SDS011;6503;48.572;13.460;2023-03-01T15:02:13;11.75;;;7.00;;
12869;SDS011;6503;48.572;13.460;2023-03-01T15:11:49;16.00;;;7.65;;
12869;SDS011;6503;48.572;13.460;2023-03-01T15:14:43;12.35;;;7.40;;
12869;SDS011;6503;48.572;13.460;2023-03-01T15:17:55;14.93;;;8.27;;
12869;SDS011;6503;48.572;13.460;2023-03-01T15:21:02;13.70;;;6.85;;
12869;SDS011;6503;48.572;13.460;2023-03-01T15:23:56;11.50;;;7.38;;
12869;SDS011;6503;48.572;13.460;2023-03-01T15:26:56;12.35;;;7.43;;
12869;SDS011;6503;48.572;13.460;2023-03-01T15:29:40;12.85;;;6.57;;
12869;SDS011;6503;48.572;13.460;2023-03-01T15:35:53;14.27;;;8.07;;
12869;SDS011;6503;48.572;13.460;2023-03-01T15:38:49;11.90;;;7.32;;
12869;SDS011;6503;48.572;13.460;2023-03-01T15:51:44;14.00;;;7.90;;
12869;SDS011;6503;48.572;13.460;2023-03-01T15:58:04;11.88;;;7.15;;
12869;SDS011;6503;48.572;13.460;2023-03-01T16:03:48;14.23;;;8.10;;
12869;SDS011;6503;48.572;13.460;2023-03-01T16:04:11;15.07;;;9.02;;
12869;SDS011;6503;48.572;13.460;2023-03-01T16:13:19;17.65;;;8.63;;
12869;SDS011;6503;48.572;13.460;2023-03-01T16:15:59;15.23;;;8.88;;
12869;SDS011;6503;48.572;13.460;2023-03-01T16:22:13;15.90;;;9.68;;
12869;SDS011;6503;48.572;13.460;2023-03-01T16:24:49;14.02;;;8.70;;
12869;SDS011;6503;48.572;13.460;2023-03-01T16:27:24;14.55;;;8.70;;
12869;SDS011;6503;48.572;13.460;2023-03-01T16:30:25;18.67;;;9.40;;
12869;SDS011;6503;48.572;13.460;2023-03-01T16:33:04;15.05;;;8.55;;
12869;SDS011;6503;48.572;13.460;2023-03-01T16:42:13;17.90;;;8.77;;
12869;SDS011;6503;48.572;13.460;2023-03-01T16:48:18;17.60;;;9.10;;
12869;SDS011;6503;48.572;13.460;2023-03-01T16:51:10;16.17;;;8.55;;
12869;SDS011;6503;48.572;13.460;2023-03-01T16:53:54;16.83;;;8.32;;
12869;SDS011;6503;48.572;13.460;2023-03-01T17:05:44;14.93;;;8.23;;
12869;SDS011;6503;48.572;13.460;2023-03-01T17:08:35;14.95;;;8.95;;
12869;SDS011;6503;48.572;13.460;2023-03-01T17:11:39;15.73;;;8.50;;
12869;SDS011;6503;48.572;13.460;2023-03-01T17:14:32;19.55;;;9.32;;
12869;SDS011;6503;48.572;13.460;2023-03-01T17:17:15;17.60;;;9.40;;
12869;SDS011;6503;48.572;13.460;2023-03-01T17:20:05;15.65;;;9.90;;
12869;SDS011;6503;48.572;13.460;2023-03-01T17:22:42;16.02;;;9.73;;
12869;SDS011;6503;48.572;13.460;2023-03-01T17:31:10;16.05;;;8.77;;
12869;SDS011;6503;48.572;13.460;2023-03-01T17:33:58;20.13;;;9.85;;
12869;SDS011;6503;48.572;13.460;2023-03-01T17:39:56;19.73;;;9.77;;
12869;SDS011;6503;48.572;13.460;2023-03-01T17:42:33;18.98;;;10.20;;
12869;SDS011;6503;48.572;13.460;2023-03-01T17:45:15;22.02;;;9.85;;
12869;SDS011;6503;48.572;13.460;2023-03-01T17:48:03;23.92;;;10.40;;
12869;SDS011;6503;48.572;13.460;2023-03-01T17:50:37;19.50;;;10.80;;
12869;SDS011;6503;48.572;13.460;2023-03-01T17:53:29;22.63;;;12.88;;
12869;SDS011;6503;48.572;13.460;2023-03-01T17:56:13;25.15;;;12.82;;
12869;SDS011;6503;48.572;13.460;2023-03-01T18:02:25;21.92;;;13.32;;
12869;SDS011;6503;48.572;13.460;2023-03-01T18:05:01;25.58;;;13.18;;
12869;SDS011;6503;48.572;13.460;2023-03-01T18:07:52;24.63;;;12.15;;
12869;SDS011;6503;48.572;13.460;2023-03-01T18:10:34;23.10;;;12.77;;
12869;SDS011;6503;48.572;13.460;2023-03-01T18:13:08;23.50;;;12.88;;
12869;SDS011;6503;48.572;13.460;2023-03-01T18:15:56;24.48;;;13.15;;
12869;SDS011;6503;48.572;13.460;2023-03-01T18:18:36;22.42;;;12.50;;
12869;SDS011;6503;48.572;13.460;2023-03-01T18:22:35;26.10;;;13.80;;
12869;SDS011;6503;48.572;13.460;2023-03-01T18:24:40;24.45;;;12.75;;
12869;SDS011;6503;48.572;13.460;2023-03-01T18:27:16;25.33;;;13.52;;
12869;SDS011;6503;48.572;13.460;2023-03-01T18:29:44;22.33;;;13.07;;
12869;SDS011;6503;48.572;13.460;2023-03-01T18:32:11;22.45;;;12.95;;
12869;SDS011;6503;48.572;13.460;2023-03-01T18:34:43;22.90;;;12.73;;
12869;SDS011;6503;48.572;13.460;2023-03-01T18:37:25;25.33;;;13.32;;
12869;SDS011;6503;48.572;13.460;2023-03-01T18:40:00;21.77;;;12.73;;
12869;SDS011;6503;48.572;13.460;2023-03-01T18:42:41;26.02;;;13.18;;
12869;SDS011;6503;48.572;13.460;2023-03-01T18:45:33;25.63;;;13.35;;
12869;SDS011;6503;48.572;13.460;2023-03-01T18:48:09;24.75;;;14.25;;
12869;SDS011;6503;48.572;13.460;2023-03-01T18:50:50;21.92;;;12.40;;
12869;SDS011;6503;48.572;13.460;2023-03-01T18:53:58;26.00;;;14.30;;
12869;SDS011;6503;48.572;13.460;2023-03-01T18:56:48;22.55;;;12.75;;
12869;SDS011;6503;48.572;13.460;2023-03-01T18:59:21;22.88;;;13.70;;
12869;SDS011;6503;48.572;13.460;2023-03-01T19:02:05;20.02;;;12.68;;
12869;SDS011;6503;48.572;13.460;2023-03-01T19:05:01;23.52;;;13.48;;
12869;SDS011;6503;48.572;13.460;2023-03-01T19:07:51;25.40;;;14.45;;
12869;SDS011;6503;48.572;13.460;2023-03-01T19:10:36;26.65;;;14.43;;
12869;SDS011;6503;48.572;13.460;2023-03-01T19:14:20;25.13;;;13.90;;
12869;SDS011;6503;48.572;13.460;2023-03-01T19:19:08;25.38;;;14.52;;
12869;SDS011;6503;48.572;13.460;2023-03-01T19:21:57;25.35;;;14.10;;
12869;SDS011;6503;48.572;13.460;2023-03-01T19:27:45;25.85;;;14.93;;
12869;SDS011;6503;48.572;13.460;2023-03-01T19:30:19;29.20;;;15.68;;
12869;SDS011;6503;48.572;13.460;2023-03-01T19:33:15;25.30;;;13.40;;
12869;SDS011;6503;48.572;13.460;2023-03-01T19:35:59;27.83;;;15.38;;
12869;SDS011;6503;48.572;13.460;2023-03-01T19:38:45;28.58;;;15.27;;
12869;SDS011;6503;48.572;13.460;2023-03-01T19:41:24;31.13;;;16.15;;
12869;SDS011;6503;48.572;13.460;2023-03-01T19:43:52;26.25;;;14.00;;
12869;SDS011;6503;48.572;13.460;2023-03-01T19:46:25;28.23;;;14.27;;
12869;SDS011;6503;48.572;13.460;2023-03-01T19:49:01;27.23;;;14.95;;
12869;SDS011;6503;48.572;13.460;2023-03-01T19:51:51;25.85;;;14.43;;
12869;SDS011;6503;48.572;13.460;2023-03-01T19:54:23;24.40;;;13.93;;
12869;SDS011;6503;48.572;13.460;2023-03-01T19:57:04;25.30;;;14.68;;
12869;SDS011;6503;48.572;13.460;2023-03-01T20:00:17;23.70;;;13.27;;
12869;SDS011;6503;48.572;13.460;2023-03-01T20:03:14;25.10;;;13.43;;
12869;SDS011;6503;48.572;13.460;2023-03-01T20:09:24;23.60;;;13.48;;
12869;SDS011;6503;48.572;13.460;2023-03-01T20:11:54;23.35;;;13.52;;
12869;SDS011;6503;48.572;13.460;2023-03-01T20:14:28;25.20;;;14.20;;
12869;SDS011;6503;48.572;13.460;2023-03-01T20:16:58;24.17;;;13.43;;
12869;SDS011;6503;48.572;13.460;2023-03-01T20:25:18;26.65;;;14.57;;
12869;SDS011;6503;48.572;13.460;2023-03-01T20:28:01;27.25;;;15.45;;
12869;SDS011;6503;48.572;13.460;2023-03-01T20:30:45;42.83;;;22.35;;
12869;SDS011;6503;48.572;13.460;2023-03-01T20:33:34;27.25;;;14.93;;
12869;SDS011;6503;48.572;13.460;2023-03-01T20:36:20;25.67;;;14.98;;
12869;SDS011;6503;48.572;13.460;2023-03-01T20:39:02;35.60;;;16.88;;